createdAt,value
2022-08-22T00:02:05.981Z,2.33
2022-08-22T00:02:45.721Z,1.98
2022-08-22T00:02:52.899Z,2.10
2022-08-22T00:04:39.838Z,2.53
2022-08-22T00:07:11.338Z,2.80
2022-08-22T00:09:41.685Z,2.33
2022-08-22T00:12:15.147Z,1.60
2022-08-22T00:14:46.262Z,2.25
2022-08-22T00:17:30.181Z,2.63
2022-08-22T00:20:01.600Z,1.98
2022-08-22T00:22:34.966Z,2.28
2022-08-22T00:25:24.721Z,2.33
2022-08-22T00:27:56.034Z,2.83
2022-08-22T00:30:23.810Z,1.40
2022-08-22T00:32:54.619Z,1.85
2022-08-22T00:35:24.354Z,3.55
2022-08-22T00:38:02.737Z,2.15
2022-08-22T00:40:36.337Z,1.92
2022-08-22T00:43:35.292Z,3.15
2022-08-22T00:46:19.632Z,2.08
2022-08-22T00:49:04.979Z,1.50
2022-08-22T00:51:51.600Z,2.33
2022-08-22T00:54:24.518Z,2.35
2022-08-22T00:57:11.870Z,2.15
2022-08-22T00:59:51.527Z,3.00
2022-08-22T01:02:28.531Z,2.85
2022-08-22T01:05:17.338Z,1.60
2022-08-22T01:07:59.323Z,1.98
2022-08-22T01:10:38.104Z,1.55
2022-08-22T01:13:15.423Z,1.70
2022-08-22T01:15:43.231Z,2.83
2022-08-22T01:18:30.979Z,2.95
2022-08-22T01:26:54.191Z,1.60
2022-08-22T01:29:48.701Z,3.45
2022-08-22T01:32:53.390Z,2.78
2022-08-22T01:36:12.621Z,2.17
2022-08-22T01:38:51.830Z,2.10
2022-08-22T01:44:05.482Z,1.90
2022-08-22T01:46:36.693Z,2.60
2022-08-22T01:49:09.479Z,1.67
2022-08-22T01:51:40.474Z,2.33
2022-08-22T01:54:10.943Z,1.88
2022-08-22T01:56:41.960Z,1.15
2022-08-22T01:59:11.311Z,2.20
2022-08-22T02:01:53.655Z,1.92
2022-08-22T02:04:29.996Z,2.05
2022-08-22T02:07:03.376Z,3.20
2022-08-22T02:09:36.230Z,2.40
2022-08-22T02:12:22.148Z,3.60
2022-08-22T02:14:53.802Z,2.35
2022-08-22T02:17:23.226Z,2.72
2022-08-22T02:19:55.740Z,1.50
2022-08-22T02:22:32.441Z,2.60
2022-08-22T02:25:04.416Z,3.00
2022-08-22T02:27:40.110Z,3.67
2022-08-22T02:30:09.936Z,2.58
2022-08-22T02:32:46.858Z,2.40
2022-08-22T02:35:21.928Z,2.47
2022-08-22T02:37:56.924Z,2.58
2022-08-22T02:40:29.280Z,3.05
2022-08-22T02:42:59.668Z,1.80
2022-08-22T02:45:31.209Z,1.45
2022-08-22T02:48:02.318Z,2.63
2022-08-22T02:50:35.818Z,4.30
2022-08-22T02:53:07.078Z,1.77
2022-08-22T02:55:43.597Z,4.05
2022-08-22T02:58:15.628Z,3.10
2022-08-22T03:00:46.355Z,1.77
2022-08-22T03:03:22.577Z,2.28
2022-08-22T03:05:59.116Z,2.17
2022-08-22T03:08:31.826Z,4.68
2022-08-22T03:11:07.352Z,4.28
2022-08-22T03:13:38.850Z,2.78
2022-08-22T03:16:11.767Z,3.53
2022-08-22T03:18:44.602Z,4.32
2022-08-22T03:21:17.679Z,2.85
2022-08-22T03:23:48.591Z,3.92
2022-08-22T03:26:18.327Z,3.65
2022-08-22T03:28:59.144Z,2.78
2022-08-22T03:31:28.514Z,2.45
2022-08-22T03:34:20.350Z,1.90
2022-08-22T03:36:48.327Z,1.55
2022-08-22T03:39:20.137Z,3.92
2022-08-22T03:42:04.215Z,2.65
2022-08-22T03:44:59.650Z,2.65
2022-08-22T03:47:46.184Z,2.60
2022-08-22T03:50:46.251Z,2.00
2022-08-22T03:56:44.986Z,3.70
2022-08-22T04:00:06.076Z,2.03
2022-08-22T04:03:07.333Z,4.28
2022-08-22T04:05:59.246Z,3.17
2022-08-22T04:08:53.408Z,3.70
2022-08-22T04:11:41.350Z,2.58
2022-08-22T04:14:31.864Z,3.65
2022-08-22T04:17:17.667Z,3.53
2022-08-22T04:20:18.448Z,3.17
2022-08-22T04:23:14.625Z,2.60
2022-08-22T04:25:43.102Z,3.13
2022-08-22T04:28:12.689Z,3.53
2022-08-22T04:30:43.349Z,4.57
2022-08-22T04:33:15.768Z,4.10
2022-08-22T04:35:45.709Z,2.83
2022-08-22T04:38:15.288Z,2.38
2022-08-22T04:40:44.912Z,2.42
2022-08-22T04:43:16.108Z,2.80
2022-08-22T04:45:46.416Z,2.10
2022-08-22T04:48:17.196Z,4.22
2022-08-22T04:50:46.960Z,2.80
2022-08-22T04:53:23.225Z,3.47
2022-08-22T04:55:56.024Z,2.65
2022-08-22T04:58:31.653Z,3.75
2022-08-22T05:01:04.801Z,2.38
2022-08-22T05:03:35.203Z,2.50
2022-08-22T05:06:02.937Z,2.80
2022-08-22T05:08:31.960Z,2.85
2022-08-22T05:10:59.981Z,2.28
2022-08-22T05:13:31.554Z,3.17
2022-08-22T05:16:03.194Z,3.30
2022-08-22T05:18:35.041Z,3.25
2022-08-22T05:21:04.599Z,3.53
2022-08-22T05:23:37.628Z,3.88
2022-08-22T05:28:36.254Z,3.88
2022-08-22T05:31:05.184Z,2.67
2022-08-22T05:33:35.698Z,4.13
2022-08-22T05:36:05.214Z,4.55
2022-08-22T05:38:34.648Z,3.92
2022-08-22T05:41:05.348Z,7.03
2022-08-22T05:43:34.505Z,2.20
2022-08-22T05:46:02.215Z,4.23
2022-08-22T05:48:32.920Z,6.43
2022-08-22T05:51:06.182Z,4.97
2022-08-22T05:53:35.980Z,4.07
2022-08-22T05:56:04.955Z,6.90
2022-08-22T05:58:51.894Z,5.03
2022-08-22T06:01:25.992Z,7.45
2022-08-22T06:04:01.927Z,4.60
2022-08-22T06:06:31.392Z,5.07
2022-08-22T06:09:01.627Z,5.88
2022-08-22T06:11:33.953Z,9.27
2022-08-22T06:14:07.175Z,6.38
2022-08-22T06:16:37.862Z,8.13
2022-08-22T06:19:19.102Z,6.90
2022-08-22T06:21:50.111Z,7.07
2022-08-22T06:26:48.794Z,10.63
2022-08-22T06:29:21.865Z,5.70
2022-08-22T06:31:49.705Z,7.60
2022-08-22T06:34:19.001Z,8.52
2022-08-22T06:36:49.530Z,6.40
2022-08-22T06:39:18.701Z,4.50
2022-08-22T06:41:49.448Z,5.73
2022-08-22T06:44:18.687Z,5.90
2022-08-22T06:46:46.691Z,5.47
2022-08-22T06:49:14.410Z,5.82
2022-08-22T06:51:42.121Z,8.15
2022-08-22T06:54:17.011Z,4.10
2022-08-22T06:56:46.768Z,6.40
2022-08-22T06:59:15.785Z,4.90
2022-08-22T07:01:48.152Z,6.00
2022-08-22T07:04:15.894Z,4.82
2022-08-22T07:06:45.078Z,7.85
2022-08-22T07:09:19.963Z,6.40
2022-08-22T07:11:47.965Z,9.25
2022-08-22T07:14:17.133Z,5.07
2022-08-22T07:16:49.051Z,4.80
2022-08-22T07:19:25.607Z,6.55
2022-08-22T07:21:53.340Z,6.97
2022-08-22T07:24:24.558Z,7.35
2022-08-22T07:27:08.798Z,7.03
2022-08-22T07:29:43.636Z,5.50
2022-08-22T07:32:13.296Z,9.45
2022-08-22T07:34:48.756Z,7.47
2022-08-22T07:37:17.729Z,8.88
2022-08-22T07:39:51.187Z,6.80
2022-08-22T07:42:25.686Z,4.82
2022-08-22T07:45:04.351Z,7.47
2022-08-22T07:47:40.686Z,6.28
2022-08-22T07:50:08.739Z,8.25
2022-08-22T07:52:39.984Z,8.23
2022-08-22T07:55:14.172Z,6.35
2022-08-22T07:57:42.808Z,7.97
2022-08-22T08:00:13.945Z,9.05
2022-08-22T08:02:44.387Z,6.78
2022-08-22T08:05:12.086Z,6.35
2022-08-22T08:07:40.451Z,5.50
2022-08-22T08:10:13.266Z,5.28
2022-08-22T08:12:42.034Z,7.45
2022-08-22T08:15:11.091Z,6.38
2022-08-22T08:17:38.783Z,8.18
2022-08-22T08:20:09.391Z,6.20
2022-08-22T08:22:37.610Z,7.05
2022-08-22T08:25:06.043Z,7.80
2022-08-22T08:27:57.187Z,6.95
2022-08-22T08:30:36.584Z,4.25
2022-08-22T08:33:26.316Z,6.18
2022-08-22T08:36:03.183Z,6.47
2022-08-22T08:38:33.498Z,6.63
2022-08-22T08:41:18.693Z,6.25
2022-08-22T08:43:53.180Z,6.15
2022-08-22T08:46:55.166Z,6.22
2022-08-22T08:49:44.227Z,5.80
2022-08-22T08:52:32.652Z,7.15
2022-08-22T08:55:19.855Z,6.32
2022-08-22T08:58:06.530Z,5.60
2022-08-22T09:00:49.686Z,7.05
2022-08-22T09:03:30.920Z,5.97
2022-08-22T09:06:14.369Z,10.52
2022-08-22T09:08:56.105Z,4.97
2022-08-22T09:12:14.680Z,3.85
2022-08-22T09:15:03.785Z,5.57
2022-08-22T09:18:19.338Z,5.97
2022-08-22T09:20:53.870Z,6.82
2022-08-22T09:23:55.007Z,6.18
2022-08-22T09:26:25.160Z,6.28
2022-08-22T09:28:54.724Z,4.07
2022-08-22T09:31:47.392Z,6.53
2022-08-22T09:37:17.715Z,5.68
2022-08-22T09:39:51.672Z,4.05
2022-08-22T09:40:15.704Z,6.47
2022-08-22T09:42:21.613Z,4.53
2022-08-22T09:47:24.458Z,4.47
2022-08-22T09:49:57.392Z,5.60
2022-08-22T09:52:41.296Z,4.47
2022-08-22T09:55:16.017Z,4.00
2022-08-22T09:57:48.286Z,4.85
2022-08-22T10:00:22.129Z,4.15
2022-08-22T10:03:07.279Z,3.58
2022-08-22T10:05:43.616Z,4.55
2022-08-22T10:08:25.534Z,6.82
2022-08-22T10:11:07.186Z,16.02
2022-08-22T10:13:40.583Z,7.60
2022-08-22T10:16:17.864Z,7.40
2022-08-22T10:18:53.822Z,8.40
2022-08-22T10:21:26.406Z,6.35
2022-08-22T10:23:59.268Z,7.38
2022-08-22T10:26:35.295Z,5.85
2022-08-22T10:29:10.005Z,5.53
2022-08-22T10:31:59.091Z,5.75
2022-08-22T10:34:29.126Z,4.80
2022-08-22T10:37:02.667Z,3.20
2022-08-22T10:39:35.108Z,4.35
2022-08-22T10:42:12.452Z,4.13
2022-08-22T10:44:42.663Z,2.67
2022-08-22T10:47:14.103Z,7.28
2022-08-22T10:49:44.506Z,3.08
2022-08-22T10:52:15.773Z,4.50
2022-08-22T10:54:48.313Z,3.42
2022-08-22T10:57:29.149Z,3.97
2022-08-22T11:02:36.776Z,8.95
2022-08-22T11:05:27.472Z,11.07
2022-08-22T11:08:02.539Z,15.20
2022-08-22T11:10:35.745Z,32.17
2022-08-22T11:13:11.936Z,25.10
2022-08-22T11:16:01.405Z,16.65
2022-08-22T11:18:38.146Z,14.25
2022-08-22T11:21:07.255Z,12.65
2022-08-22T11:23:41.672Z,9.48
2022-08-22T11:26:29.908Z,11.32
2022-08-22T11:29:20.574Z,7.70
2022-08-22T11:31:51.933Z,3.20
2022-08-22T11:34:26.895Z,8.15
2022-08-22T11:36:55.464Z,10.82
2022-08-22T11:39:25.543Z,10.32
2022-08-22T11:41:58.710Z,10.27
2022-08-22T11:44:29.283Z,8.90
2022-08-22T11:46:58.115Z,8.57
2022-08-22T11:49:31.626Z,9.82
2022-08-22T11:52:04.663Z,10.63
2022-08-22T11:54:37.754Z,7.63
2022-08-22T11:57:12.564Z,9.82
2022-08-22T12:00:01.887Z,8.77
2022-08-22T12:02:32.842Z,10.02
2022-08-22T12:05:05.112Z,7.93
2022-08-22T12:07:34.292Z,11.80
2022-08-22T12:10:03.458Z,10.90
2022-08-22T12:12:43.419Z,7.65
2022-08-22T12:15:14.755Z,7.20
2022-08-22T12:18:10.470Z,9.52
2022-08-22T12:21:17.434Z,7.45
2022-08-22T12:24:21.068Z,10.00
2022-08-22T12:26:55.659Z,10.93
2022-08-22T12:29:34.087Z,5.18
2022-08-22T12:32:43.894Z,6.80
2022-08-22T12:35:19.275Z,4.57
2022-08-22T12:37:52.701Z,7.22
2022-08-22T12:40:45.951Z,7.20
2022-08-22T12:43:42.610Z,9.07
2022-08-22T12:46:18.663Z,4.40
2022-08-22T12:49:10.963Z,6.90
2022-08-22T12:51:42.844Z,5.43
2022-08-22T12:54:45.996Z,4.65
2022-08-22T12:57:24.233Z,4.77
2022-08-22T12:59:53.932Z,4.18
2022-08-22T13:02:26.774Z,3.90
2022-08-22T13:04:55.714Z,5.45
2022-08-22T13:07:25.416Z,4.85
2022-08-22T13:09:54.626Z,11.00
2022-08-22T13:12:25.623Z,7.47
2022-08-22T13:14:56.724Z,5.78
2022-08-22T13:17:25.901Z,4.80
2022-08-22T13:20:08.632Z,4.50
2022-08-22T13:22:37.784Z,6.05
2022-08-22T13:27:50.664Z,4.35
2022-08-22T13:30:21.323Z,4.60
2022-08-22T13:35:24.431Z,3.05
2022-08-22T13:37:53.754Z,3.05
2022-08-22T13:40:25.546Z,2.97
2022-08-22T13:42:55.244Z,2.88
2022-08-22T13:45:25.640Z,2.70
2022-08-22T13:47:56.837Z,3.35
2022-08-22T13:50:25.527Z,3.22
2022-08-22T13:52:57.184Z,3.53
2022-08-22T13:55:29.661Z,3.05
2022-08-22T13:58:00.913Z,2.97
2022-08-22T14:01:08.796Z,2.13
2022-08-22T14:03:40.958Z,3.03
2022-08-22T14:06:35.523Z,2.50
2022-08-22T14:09:13.852Z,3.30
2022-08-22T14:11:44.340Z,3.03
2022-08-22T14:14:12.069Z,2.17
2022-08-22T14:16:51.689Z,2.40
2022-08-22T14:19:27.932Z,2.30
2022-08-22T14:21:59.549Z,2.47
2022-08-22T14:24:29.126Z,2.70
2022-08-22T14:26:59.727Z,3.25
2022-08-22T14:29:38.811Z,2.28
2022-08-22T14:32:14.075Z,3.30
2022-08-22T14:34:45.440Z,2.63
2022-08-22T14:37:17.004Z,2.90
2022-08-22T14:39:47.153Z,5.68
2022-08-22T14:42:17.568Z,4.75
2022-08-22T14:44:51.795Z,2.80
2022-08-22T14:47:43.242Z,2.85
2022-08-22T14:50:42.155Z,3.63
2022-08-22T14:53:12.050Z,4.43
2022-08-22T14:55:40.427Z,5.32
2022-08-22T14:58:09.783Z,2.05
2022-08-22T15:00:39.202Z,2.92
2022-08-22T15:03:14.736Z,3.05
2022-08-22T15:05:48.712Z,2.97
2022-08-22T15:08:27.439Z,3.85
2022-08-22T15:11:13.268Z,2.28
2022-08-22T15:13:43.274Z,2.92
2022-08-22T15:16:15.241Z,2.67
2022-08-22T15:18:51.703Z,4.30
2022-08-22T15:21:24.127Z,3.22
2022-08-22T15:23:54.306Z,3.05
2022-08-22T15:26:28.605Z,4.15
2022-08-22T15:29:18.400Z,2.00
2022-08-22T15:31:48.340Z,3.25
2022-08-22T15:34:22.939Z,4.57
2022-08-22T15:37:09.817Z,2.75
2022-08-22T15:40:02.978Z,2.07
2022-08-22T15:42:37.456Z,2.17
2022-08-22T15:45:06.031Z,5.10
2022-08-22T15:47:37.620Z,3.65
2022-08-22T15:50:07.586Z,3.17
2022-08-22T15:52:59.148Z,2.53
2022-08-22T15:55:34.433Z,4.20
2022-08-22T15:58:05.613Z,2.35
2022-08-22T16:00:43.413Z,2.22
2022-08-22T16:03:13.196Z,2.70
2022-08-22T16:05:54.972Z,2.22
2022-08-22T16:08:27.189Z,2.25
2022-08-22T16:11:20.563Z,3.67
2022-08-22T16:13:48.294Z,2.50
2022-08-22T16:16:49.198Z,2.25
2022-08-22T16:19:19.614Z,2.20
2022-08-22T16:22:02.826Z,2.28
2022-08-22T16:24:56.240Z,2.15
2022-08-22T16:27:25.996Z,2.67
2022-08-22T16:30:02.307Z,2.88
2022-08-22T16:32:30.011Z,2.10
2022-08-22T16:34:57.757Z,1.98
2022-08-22T16:37:45.476Z,2.97
2022-08-22T16:40:20.115Z,3.10
2022-08-22T16:42:50.904Z,3.08
2022-08-22T16:45:20.305Z,2.13
2022-08-22T16:47:56.583Z,1.83
2022-08-22T16:50:32.364Z,3.53
2022-08-22T16:53:02.414Z,2.05
2022-08-22T16:55:59.967Z,2.88
2022-08-22T16:59:01.062Z,2.42
2022-08-22T17:02:00.681Z,2.00
2022-08-22T17:04:32.995Z,2.95
2022-08-22T17:07:11.628Z,2.00
2022-08-22T17:10:04.854Z,2.97
2022-08-22T17:12:42.512Z,2.08
2022-08-22T17:15:17.746Z,3.25
2022-08-22T17:17:52.187Z,2.33
2022-08-22T17:20:24.282Z,2.67
2022-08-22T17:22:54.297Z,1.98
2022-08-22T17:25:23.489Z,2.20
2022-08-22T17:27:56.189Z,2.10
2022-08-22T17:30:27.316Z,2.47
2022-08-22T17:33:03.859Z,1.90
2022-08-22T17:35:38.242Z,3.08
2022-08-22T17:38:08.494Z,2.20
2022-08-22T17:40:42.926Z,2.50
2022-08-22T17:43:22.855Z,2.25
2022-08-22T17:48:23.268Z,2.45
2022-08-22T17:50:54.867Z,2.20
2022-08-22T17:53:32.216Z,1.83
2022-08-22T17:56:04.642Z,2.50
2022-08-22T17:58:43.393Z,1.98
2022-08-22T18:01:14.646Z,2.20
2022-08-22T18:03:47.300Z,2.47
2022-08-22T18:06:19.160Z,2.45
2022-08-22T18:11:40.320Z,2.17
2022-08-22T18:14:11.683Z,4.47
2022-08-22T18:16:49.772Z,3.40
2022-08-22T18:19:31.907Z,2.80
2022-08-22T18:22:04.433Z,3.13
2022-08-22T18:24:33.636Z,1.75
2022-08-22T18:27:03.213Z,2.15
2022-08-22T18:29:41.509Z,2.55
2022-08-22T18:32:12.499Z,2.15
2022-08-22T18:34:43.543Z,2.10
2022-08-22T18:37:17.538Z,2.47
2022-08-22T18:39:48.087Z,1.83
2022-08-22T18:42:22.057Z,2.22
2022-08-22T18:44:51.151Z,3.50
2022-08-22T18:47:21.580Z,2.23
2022-08-22T18:49:54.137Z,2.35
2022-08-22T18:52:33.063Z,2.10
2022-08-22T18:55:42.381Z,2.00
2022-08-22T18:58:28.847Z,1.77
2022-08-22T19:01:06.728Z,2.70
2022-08-22T19:03:42.614Z,2.42
2022-08-22T19:06:22.389Z,1.77
2022-08-22T19:09:14.659Z,2.70
2022-08-22T19:11:47.300Z,2.65
2022-08-22T19:14:27.719Z,3.95
2022-08-22T19:17:06.224Z,1.80
2022-08-22T19:19:56.471Z,2.28
2022-08-22T19:22:26.447Z,2.05
2022-08-22T19:27:39.505Z,1.98
2022-08-22T19:30:08.450Z,2.72
2022-08-22T19:33:07.669Z,2.22
2022-08-22T19:35:44.169Z,2.38
2022-08-22T19:38:11.998Z,2.50
2022-08-22T19:40:54.313Z,2.80
2022-08-22T19:43:29.795Z,2.97
2022-08-22T19:45:57.780Z,2.08
2022-08-22T19:48:28.524Z,2.55
2022-08-22T19:51:12.703Z,2.67
2022-08-22T19:53:45.987Z,2.90
2022-08-22T19:56:23.969Z,2.53
2022-08-22T19:58:57.418Z,2.58
2022-08-22T20:01:35.509Z,4.03
2022-08-22T20:04:06.057Z,2.90
2022-08-22T20:06:44.278Z,2.47
2022-08-22T20:09:24.710Z,2.47
2022-08-22T20:14:30.023Z,1.98
2022-08-22T20:17:01.219Z,2.58
2022-08-22T20:20:16.537Z,2.30
2022-08-22T20:22:35.515Z,1.60
2022-08-22T20:25:08.112Z,2.10
2022-08-22T20:27:46.754Z,2.83
2022-08-22T20:30:15.771Z,1.83
2022-08-22T20:32:45.582Z,1.63
2022-08-22T20:35:19.031Z,2.13
2022-08-22T20:38:06.382Z,2.10
2022-08-22T20:40:54.868Z,3.17
2022-08-22T20:46:00.898Z,2.90
2022-08-22T20:48:33.456Z,3.30
2022-08-22T20:51:05.089Z,2.00
2022-08-22T20:53:32.806Z,2.45
2022-08-22T20:56:00.516Z,3.40
2022-08-22T20:58:29.629Z,2.03
2022-08-22T21:01:00.150Z,1.90
2022-08-22T21:03:33.968Z,2.28
2022-08-22T21:06:12.024Z,2.17
2022-08-22T21:08:39.879Z,2.13
2022-08-22T21:11:25.423Z,1.92
2022-08-22T21:13:53.335Z,2.10
2022-08-22T21:16:22.248Z,2.80
2022-08-22T21:18:50.769Z,2.85
2022-08-22T21:21:21.367Z,2.00
2022-08-22T21:23:50.165Z,3.28
2022-08-22T21:26:22.264Z,1.90
2022-08-22T21:28:57.258Z,3.13
2022-08-22T21:31:25.972Z,4.75
2022-08-22T21:33:54.640Z,2.00
2022-08-22T21:36:25.384Z,2.70
2022-08-22T21:38:54.595Z,1.70
2022-08-22T21:41:29.923Z,2.85
2022-08-22T21:43:57.667Z,2.70
2022-08-22T21:46:27.359Z,2.95
2022-08-22T21:48:59.772Z,2.70
2022-08-22T21:51:31.851Z,2.72
2022-08-22T21:54:22.230Z,2.13
2022-08-22T21:56:51.104Z,2.55
2022-08-22T21:59:26.828Z,3.10
2022-08-22T22:02:36.335Z,3.03
2022-08-22T22:05:07.488Z,2.67
2022-08-22T22:07:37.948Z,3.45
2022-08-22T22:10:07.465Z,2.10
2022-08-22T22:12:35.202Z,2.08
2022-08-22T22:15:02.951Z,4.07
2022-08-22T22:17:30.646Z,2.50
2022-08-22T22:19:58.405Z,3.53
2022-08-22T22:22:26.116Z,2.75
2022-08-22T22:24:55.197Z,2.97
2022-08-22T22:27:22.907Z,3.50
2022-08-22T22:29:50.641Z,3.05
2022-08-22T22:32:18.334Z,3.50
2022-08-22T22:34:46.046Z,2.30
2022-08-22T22:37:14.743Z,3.25
2022-08-22T22:39:42.737Z,2.47
2022-08-22T22:42:11.879Z,2.85
2022-08-22T22:44:39.570Z,3.63
2022-08-22T22:47:11.652Z,2.35
2022-08-22T22:49:39.418Z,2.33
2022-08-22T22:52:07.312Z,2.97
2022-08-22T22:54:39.365Z,2.33
2022-08-22T22:57:12.158Z,2.15
2022-08-22T22:59:41.917Z,3.28
2022-08-22T23:02:11.589Z,3.67
2022-08-22T23:04:41.867Z,4.20
2022-08-22T23:07:09.852Z,3.75
2022-08-22T23:09:38.165Z,2.97
2022-08-22T23:12:06.934Z,2.08
2022-08-22T23:14:35.014Z,2.58
2022-08-22T23:17:04.248Z,2.13
2022-08-22T23:19:31.995Z,3.40
2022-08-22T23:22:01.029Z,2.33
2022-08-22T23:24:29.518Z,2.87
2022-08-22T23:26:57.350Z,3.95
2022-08-22T23:29:25.179Z,4.13
2022-08-22T23:31:54.161Z,2.72
2022-08-22T23:34:31.541Z,2.63
2022-08-22T23:37:00.592Z,2.90
2022-08-22T23:39:29.208Z,3.60
2022-08-22T23:41:57.029Z,3.85
2022-08-22T23:44:26.244Z,2.42
2022-08-22T23:46:53.964Z,2.25
2022-08-22T23:49:23.059Z,3.33
2022-08-22T23:51:50.925Z,2.43
2022-08-22T23:54:18.854Z,2.92
2022-08-22T23:56:47.623Z,3.58
2022-08-22T23:59:17.008Z,2.72
